createdAt,value
2022-08-30T00:05:04.036Z,15.68
2022-08-30T00:10:08.221Z,15.81
2022-08-30T00:15:12.405Z,15.85
2022-08-30T00:20:14.651Z,15.93
2022-08-30T00:25:18.830Z,16.02
2022-08-30T00:30:21.093Z,15.99
2022-08-30T00:35:25.240Z,15.97
2022-08-30T00:40:27.716Z,15.99
2022-08-30T00:45:31.640Z,16.02
2022-08-30T00:50:35.809Z,16.16
2022-08-30T00:55:42.042Z,16.18
2022-08-30T01:00:44.172Z,16.18
2022-08-30T01:05:48.306Z,16.17
2022-08-30T01:10:52.466Z,16.08
2022-08-30T01:15:56.664Z,16.12
2022-08-30T01:21:00.835Z,16.08
2022-08-30T01:26:04.958Z,16.11
2022-08-30T01:31:09.137Z,16.21
2022-08-30T01:36:13.281Z,16.28
2022-08-30T01:41:17.433Z,16.28
2022-08-30T01:46:21.662Z,16.28
2022-08-30T01:51:25.725Z,16.39
2022-08-30T01:56:29.888Z,16.42
2022-08-30T02:01:34.165Z,16.38
2022-08-30T02:06:38.250Z,16.38
2022-08-30T02:11:42.379Z,16.37
2022-08-30T02:16:46.575Z,16.40
2022-08-30T02:26:54.889Z,16.40
2022-08-30T02:31:57.125Z,16.36
2022-08-30T02:37:01.278Z,16.32
2022-08-30T02:42:05.476Z,16.30
2022-08-30T02:47:09.621Z,16.33
2022-08-30T02:52:13.788Z,16.35
2022-08-30T02:57:19.939Z,16.28
2022-08-30T03:02:22.106Z,16.17
2022-08-30T03:07:26.260Z,16.05
2022-08-30T03:12:30.419Z,16.02
2022-08-30T03:17:34.576Z,16.06
2022-08-30T03:22:38.763Z,16.06
2022-08-30T03:27:42.912Z,15.98
2022-08-30T03:32:47.063Z,15.82
2022-08-30T03:37:55.869Z,15.66
2022-08-30T03:42:55.373Z,15.48
2022-08-30T03:47:59.521Z,15.29
2022-08-30T03:53:03.803Z,15.14
2022-08-30T03:58:07.835Z,15.05
2022-08-30T04:03:12.004Z,14.96
2022-08-30T04:08:16.291Z,14.99
2022-08-30T04:13:20.357Z,15.11
2022-08-30T04:18:22.594Z,15.14
2022-08-30T04:23:26.759Z,15.06
2022-08-30T04:28:29.006Z,15.02
2022-08-30T04:33:33.185Z,15.01
2022-08-30T04:38:37.373Z,14.98
2022-08-30T04:43:41.527Z,14.97
2022-08-30T04:48:45.682Z,14.92
2022-08-30T04:53:49.834Z,14.87
2022-08-30T04:58:53.979Z,14.82
2022-08-30T05:03:58.144Z,14.86
2022-08-30T05:09:02.309Z,14.92
2022-08-30T05:14:06.475Z,14.94
2022-08-30T05:19:10.619Z,14.94
2022-08-30T05:24:14.816Z,14.98
2022-08-30T05:29:18.981Z,15.04
2022-08-30T05:34:23.132Z,15.19
2022-08-30T05:39:27.284Z,15.33
2022-08-30T05:44:31.446Z,15.41
2022-08-30T05:49:35.600Z,15.47
2022-08-30T05:54:39.719Z,15.57
2022-08-30T05:59:43.980Z,15.58
2022-08-30T06:04:48.053Z,15.56
2022-08-30T06:09:52.239Z,15.59
2022-08-30T06:14:54.470Z,15.66
2022-08-30T06:19:58.648Z,15.82
2022-08-30T06:25:00.948Z,16.02
2022-08-30T06:30:05.081Z,16.11
2022-08-30T06:35:09.252Z,16.16
2022-08-30T06:40:13.499Z,16.07
2022-08-30T06:45:17.543Z,16.28
2022-08-30T06:50:21.743Z,16.53
2022-08-30T06:55:25.898Z,16.71
2022-08-30T07:00:30.039Z,16.96
2022-08-30T07:05:34.224Z,17.11
2022-08-30T07:10:38.379Z,17.23
2022-08-30T07:15:42.575Z,17.43
2022-08-30T07:20:46.699Z,17.61
2022-08-30T07:25:50.887Z,17.80
2022-08-30T07:30:55.013Z,17.88
2022-08-30T07:35:59.186Z,17.89
2022-08-30T07:41:03.312Z,18.14
2022-08-30T07:46:07.558Z,18.25
2022-08-30T07:51:11.644Z,18.38
2022-08-30T07:56:15.791Z,18.43
2022-08-30T08:01:20.039Z,18.53
2022-08-30T08:06:24.112Z,18.75
2022-08-30T08:11:29.397Z,18.91
2022-08-30T08:16:30.759Z,19.01
2022-08-30T08:21:32.848Z,19.14
2022-08-30T08:26:36.999Z,19.36
2022-08-30T08:31:41.210Z,19.60
2022-08-30T08:36:45.340Z,19.80
2022-08-30T08:41:49.450Z,19.96
2022-08-30T08:46:53.635Z,20.07
2022-08-30T08:51:57.772Z,20.17
2022-08-30T08:57:01.940Z,20.33
2022-08-30T09:02:06.085Z,20.38
2022-08-30T09:07:10.258Z,20.49
2022-08-30T09:12:14.430Z,20.60
2022-08-30T09:17:18.568Z,20.89
2022-08-30T09:22:22.720Z,21.11
2022-08-30T09:27:26.932Z,21.40
2022-08-30T09:32:31.033Z,21.45
2022-08-30T09:37:35.232Z,21.45
2022-08-30T09:42:39.386Z,21.29
2022-08-30T09:47:43.533Z,21.77
2022-08-30T09:52:49.893Z,22.27
2022-08-30T09:57:51.850Z,22.40
2022-08-30T10:02:55.998Z,22.43
2022-08-30T10:07:58.299Z,22.14
2022-08-30T10:13:02.455Z,22.42
2022-08-30T10:18:06.576Z,22.29
2022-08-30T10:23:10.742Z,22.75
2022-08-30T10:28:14.914Z,22.94
2022-08-30T10:33:19.148Z,22.83
2022-08-30T10:38:23.261Z,23.12
2022-08-30T10:43:27.396Z,23.12
2022-08-30T10:48:31.537Z,23.39
2022-08-30T10:53:35.709Z,23.46
2022-08-30T10:58:39.877Z,23.63
2022-08-30T11:03:44.004Z,23.73
2022-08-30T11:08:48.203Z,23.60
2022-08-30T11:13:55.863Z,23.81
2022-08-30T11:18:56.478Z,23.88
2022-08-30T11:24:00.691Z,23.74
2022-08-30T11:29:04.823Z,23.49
2022-08-30T11:34:08.989Z,23.51
2022-08-30T11:39:13.111Z,23.50
2022-08-30T11:44:17.268Z,23.65
2022-08-30T11:49:23.355Z,23.84
2022-08-30T11:54:23.722Z,24.38
2022-08-30T11:59:27.859Z,24.32
2022-08-30T12:04:30.121Z,24.75
2022-08-30T12:09:34.329Z,24.77
2022-08-30T12:14:36.569Z,24.70
2022-08-30T12:19:41.413Z,24.22
2022-08-30T12:24:44.915Z,24.44
2022-08-30T12:29:49.037Z,24.44
2022-08-30T12:39:57.400Z,24.50
2022-08-30T12:45:01.505Z,24.49
2022-08-30T12:50:05.678Z,24.82
2022-08-30T12:55:17.551Z,24.95
2022-08-30T13:00:14.041Z,25.14
2022-08-30T13:05:18.374Z,25.17
2022-08-30T13:10:22.312Z,25.09
2022-08-30T13:15:26.468Z,24.99
2022-08-30T13:25:35.043Z,25.22
2022-08-30T13:30:37.104Z,25.15
2022-08-30T13:35:48.254Z,25.63
2022-08-30T13:40:59.394Z,25.59
2022-08-30T13:46:10.722Z,25.78
2022-08-30T13:51:21.718Z,25.73
2022-08-30T13:56:32.881Z,25.56
2022-08-30T14:02:07.655Z,25.59
2022-08-30T14:07:14.042Z,25.81
2022-08-30T14:11:48.603Z,25.69
2022-08-30T14:16:52.813Z,25.70
2022-08-30T14:21:56.889Z,25.78
2022-08-30T14:27:01.089Z,25.80
2022-08-30T14:32:05.206Z,25.93
2022-08-30T14:37:09.450Z,25.78
2022-08-30T14:42:13.522Z,25.76
2022-08-30T14:52:21.872Z,25.79
2022-08-30T14:57:26.030Z,25.82
2022-08-30T15:02:30.205Z,25.83
2022-08-30T15:07:34.330Z,25.99
2022-08-30T15:12:38.488Z,25.85
2022-08-30T15:17:42.647Z,25.77
2022-08-30T15:22:46.808Z,25.70
2022-08-30T15:27:50.977Z,25.54
2022-08-30T15:32:55.599Z,25.60
2022-08-30T15:37:59.302Z,25.52
2022-08-30T15:43:03.441Z,25.36
2022-08-30T15:48:07.630Z,25.23
2022-08-30T15:53:11.755Z,25.75
2022-08-30T15:58:14.078Z,25.59
2022-08-30T16:03:18.236Z,25.25
2022-08-30T16:08:22.357Z,25.11
2022-08-30T16:13:24.647Z,25.67
2022-08-30T16:18:28.802Z,26.75
2022-08-30T16:23:33.530Z,27.37
2022-08-30T16:28:37.124Z,27.62
2022-08-30T16:33:43.832Z,27.51
2022-08-30T16:38:45.434Z,27.23
2022-08-30T16:43:49.620Z,25.40
2022-08-30T16:48:53.755Z,24.80
2022-08-30T16:53:57.890Z,24.59
2022-08-30T16:59:03.293Z,24.49
2022-08-30T17:04:06.198Z,23.94
2022-08-30T17:09:10.407Z,23.56
2022-08-30T17:14:14.523Z,23.41
2022-08-30T17:19:18.727Z,23.15
2022-08-30T17:24:22.889Z,22.99
2022-08-30T17:29:26.991Z,22.81
2022-08-30T17:34:31.186Z,22.66
2022-08-30T17:39:35.326Z,22.52
2022-08-30T17:44:42.083Z,22.36
2022-08-30T17:49:43.664Z,22.19
2022-08-30T17:54:47.795Z,22.12
2022-08-30T17:59:50.066Z,21.97
2022-08-30T18:04:54.205Z,21.84
2022-08-30T18:09:56.500Z,21.70
2022-08-30T18:15:00.691Z,21.58
2022-08-30T18:20:04.859Z,21.49
2022-08-30T18:25:09.000Z,21.42
2022-08-30T18:30:13.148Z,21.35
2022-08-30T18:35:17.502Z,21.27
2022-08-30T18:40:21.456Z,21.20
2022-08-30T18:45:25.620Z,21.11
2022-08-30T18:50:29.766Z,21.03
2022-08-30T18:55:33.924Z,20.94
2022-08-30T19:00:38.072Z,20.90
2022-08-30T19:05:42.238Z,20.83
2022-08-30T19:15:50.580Z,20.79
2022-08-30T19:20:54.714Z,20.77
2022-08-30T19:25:58.912Z,20.73
2022-08-30T19:31:03.074Z,20.61
2022-08-30T19:36:07.221Z,20.56
2022-08-30T19:41:11.381Z,20.51
2022-08-30T19:46:15.513Z,20.44
2022-08-30T19:51:19.709Z,20.44
2022-08-30T19:56:23.848Z,20.38
2022-08-30T20:01:32.413Z,20.28
2022-08-30T20:06:30.263Z,20.26
2022-08-30T20:11:34.416Z,20.20
2022-08-30T20:16:38.585Z,20.18
2022-08-30T20:21:42.757Z,20.13
2022-08-30T20:26:46.924Z,20.12
2022-08-30T20:31:51.080Z,20.10
2022-08-30T20:36:55.380Z,20.01
2022-08-30T20:41:59.389Z,19.90
2022-08-30T20:47:03.525Z,19.83
2022-08-30T20:52:07.713Z,19.82
2022-08-30T20:57:11.861Z,19.79
2022-08-30T21:02:16.181Z,19.72
2022-08-30T21:12:24.354Z,19.62
2022-08-30T21:17:28.501Z,19.55
2022-08-30T21:22:32.682Z,19.56
2022-08-30T21:27:37.139Z,19.52
2022-08-30T21:32:41.008Z,19.43
2022-08-30T21:37:45.587Z,19.35
2022-08-30T21:42:49.313Z,19.32
2022-08-30T21:47:53.449Z,19.25
2022-08-30T21:52:55.725Z,19.22
2022-08-30T21:57:59.887Z,19.16
2022-08-30T22:03:04.198Z,19.13
2022-08-30T22:08:08.212Z,19.08
2022-08-30T22:13:12.354Z,18.99
2022-08-30T22:18:16.533Z,18.96
2022-08-30T22:23:20.663Z,18.93
2022-08-30T22:28:24.873Z,18.88
2022-08-30T22:33:29.000Z,18.79
2022-08-30T22:38:33.159Z,18.69
2022-08-30T22:43:37.322Z,18.63
2022-08-30T22:48:41.469Z,18.60
2022-08-30T22:53:45.643Z,18.56
2022-08-30T23:03:53.945Z,18.42
2022-08-30T23:08:58.122Z,18.37
2022-08-30T23:14:02.316Z,18.29
2022-08-30T23:19:06.444Z,18.20
2022-08-30T23:24:10.569Z,18.11
2022-08-30T23:29:14.736Z,18.06
2022-08-30T23:34:18.890Z,18.07
2022-08-30T23:39:23.092Z,18.08
2022-08-30T23:44:25.312Z,18.04
2022-08-30T23:49:29.510Z,17.97
2022-08-30T23:54:31.795Z,17.92
2022-08-30T23:59:35.943Z,17.89
